Terminal Aerodrome Forecast
Issued by NWS

Home | Current Version | Previous Version | Text Only | Print | Product List | Glossary On
Versions: 1 2 3 4 5 6 7 8 9 10 11 12 13 14 15 16 17 18 19 20 21 22 23 24
000
FTUS43 KDVN 310500
TAFCID
TAF
KCID 310532Z 3106/0106 19007KT P6SM SCT080
     FM311400 24008KT P6SM BKN030
     FM311900 24007KT 6SM BR VCSH OVC020
     FM312200 21005KT 3SM -RASN BR OVC012
     FM010000 VRB05KT 2SM -SN BR OVC007=

USA.gov is the U.S. government's official web portal to all federal, state and local government web resources and services.